createdAt,value
2023-02-26T00:06:39.733Z,98088.09
2023-02-26T00:09:06.506Z,98090.47
2023-02-26T00:11:33.746Z,98089.16
2023-02-26T00:14:00.723Z,98089.78
2023-02-26T00:16:36.422Z,98092.31
2023-02-26T00:19:05.682Z,98093.06
2023-02-26T00:21:37.682Z,98088.97
2023-02-26T00:26:36.159Z,98098.84
2023-02-26T00:31:59.485Z,98098.78
2023-02-26T00:37:20.940Z,98106.69
2023-02-26T00:39:57.896Z,98108.28
2023-02-26T00:44:54.121Z,98117.47
2023-02-26T00:47:23.331Z,98114.91
2023-02-26T00:50:14.360Z,98122.66
2023-02-26T00:52:59.540Z,98117.34
2023-02-26T00:57:57.677Z,98119.88
2023-02-26T01:05:18.517Z,98114.69
2023-02-26T01:08:02.302Z,98119.19
2023-02-26T01:12:56.868Z,98112.31
2023-02-26T01:17:55.883Z,98115.84
2023-02-26T01:23:14.759Z,98116.72
2023-02-26T01:25:47.198Z,98114.13
2023-02-26T01:28:14.065Z,98121.16
2023-02-26T01:30:40.950Z,98120.44
2023-02-26T01:33:13.370Z,98113.47
2023-02-26T01:35:52.959Z,98119.53
2023-02-26T01:38:47.308Z,98120.78
2023-02-26T01:44:15.463Z,98123.06
2023-02-26T01:47:04.096Z,98124.53
2023-02-26T01:52:04.000Z,98133.72
2023-02-26T01:54:34.663Z,98134.97
2023-02-26T01:57:07.033Z,98133.34
2023-02-26T01:59:36.788Z,98136.78
2023-02-26T02:02:08.420Z,98131.03
2023-02-26T02:04:35.670Z,98140.72
2023-02-26T02:07:03.615Z,98144.81
2023-02-26T02:12:35.786Z,98145.47
2023-02-26T02:15:15.346Z,98155.00
2023-02-26T02:18:24.031Z,98149.78
2023-02-26T02:21:15.159Z,98153.13
2023-02-26T02:23:54.483Z,98151.53
2023-02-26T02:26:44.129Z,98156.34
2023-02-26T02:29:20.065Z,98148.53
2023-02-26T02:31:58.934Z,98153.50
2023-02-26T02:37:05.144Z,98150.66
2023-02-26T02:39:42.202Z,98152.41
2023-02-26T02:45:05.050Z,98152.63
2023-02-26T02:47:36.526Z,98158.69
2023-02-26T02:50:21.390Z,98157.22
2023-02-26T02:52:54.444Z,98158.09
2023-02-26T02:58:00.659Z,98163.56
2023-02-26T03:03:20.025Z,98168.41
2023-02-26T03:05:47.590Z,98169.00
2023-02-26T03:08:17.620Z,98174.25
2023-02-26T03:10:44.580Z,98164.56
2023-02-26T03:13:17.456Z,98161.53
2023-02-26T03:19:08.204Z,98178.19
2023-02-26T03:21:50.034Z,98181.25
2023-02-26T03:27:19.986Z,98183.97
2023-02-26T03:29:58.617Z,98190.25
2023-02-26T03:33:02.959Z,98194.41
2023-02-26T03:35:51.083Z,98195.50
2023-02-26T03:38:52.091Z,98200.47
2023-02-26T03:41:33.301Z,98207.03
2023-02-26T03:49:32.974Z,98211.78
2023-02-26T03:52:01.881Z,98211.97
2023-02-26T03:54:37.473Z,98214.47
2023-02-26T03:57:04.287Z,98223.38
2023-02-26T03:59:33.050Z,98241.63
2023-02-26T04:02:04.697Z,98230.88
2023-02-26T04:04:56.308Z,98240.00
2023-02-26T04:09:51.767Z,98241.00
2023-02-26T04:14:53.104Z,98240.72
2023-02-26T04:17:20.313Z,98244.22
2023-02-26T04:19:46.951Z,98252.47
2023-02-26T04:22:13.481Z,98257.59
2023-02-26T04:24:40.149Z,98254.56
2023-02-26T04:27:06.626Z,98246.94
2023-02-26T04:29:33.232Z,98251.81
2023-02-26T04:32:00.792Z,98257.53
2023-02-26T04:36:54.010Z,98257.91
2023-02-26T04:39:20.555Z,98266.34
2023-02-26T04:41:47.255Z,98264.81
2023-02-26T04:44:13.839Z,98269.09
2023-02-26T04:46:40.486Z,98268.41
2023-02-26T04:51:33.779Z,98267.97
2023-02-26T04:54:00.274Z,98272.34
2023-02-26T04:58:53.956Z,98278.19
2023-02-26T05:01:20.461Z,98285.78
2023-02-26T05:03:49.925Z,98280.09
2023-02-26T05:06:16.682Z,98286.53
2023-02-26T05:08:43.248Z,98291.59
2023-02-26T05:13:38.069Z,98299.53
2023-02-26T05:18:32.578Z,98305.88
2023-02-26T05:20:59.611Z,98307.47
2023-02-26T05:25:57.003Z,98310.28
2023-02-26T05:30:51.702Z,98310.41
2023-02-26T05:33:18.877Z,98302.06
2023-02-26T05:35:46.474Z,98314.44
2023-02-26T05:38:13.014Z,98321.09
2023-02-26T05:40:39.761Z,98320.97
2023-02-26T05:43:06.342Z,98322.41
2023-02-26T05:45:32.864Z,98316.56
2023-02-26T05:47:59.487Z,98326.25
2023-02-26T05:52:53.463Z,98335.03
2023-02-26T05:55:20.108Z,98342.03
2023-02-26T05:57:46.581Z,98343.06
2023-02-26T06:00:13.933Z,98343.50
2023-02-26T06:02:41.220Z,98358.13
2023-02-26T06:07:40.216Z,98361.06
2023-02-26T06:12:35.434Z,98366.59
2023-02-26T06:15:02.555Z,98364.41
2023-02-26T06:20:00.695Z,98378.97
2023-02-26T06:24:55.623Z,98383.34
2023-02-26T06:27:23.531Z,98386.41
2023-02-26T06:29:50.057Z,98387.06
2023-02-26T06:32:16.791Z,98389.69
2023-02-26T06:34:43.347Z,98375.97
2023-02-26T06:37:09.983Z,98393.72
2023-02-26T06:39:36.577Z,98400.00
2023-02-26T06:42:03.196Z,98403.66
2023-02-26T06:46:56.175Z,98410.53
2023-02-26T06:49:22.698Z,98417.47
2023-02-26T06:51:49.153Z,98425.50
2023-02-26T06:54:16.104Z,98426.97
2023-02-26T06:56:42.629Z,98424.00
2023-02-26T07:01:35.610Z,98440.09
2023-02-26T07:04:02.246Z,98437.25
2023-02-26T07:06:28.776Z,98438.47
2023-02-26T07:08:56.070Z,98445.72
2023-02-26T07:11:23.145Z,98448.16
2023-02-26T07:13:51.466Z,98458.09
2023-02-26T07:16:18.385Z,98461.81
2023-02-26T07:18:45.020Z,98467.00
2023-02-26T07:21:11.536Z,98468.03
2023-02-26T07:23:38.080Z,98478.13
2023-02-26T07:26:04.781Z,98476.38
2023-02-26T07:30:58.106Z,98487.19
2023-02-26T07:38:19.803Z,98489.03
2023-02-26T07:40:47.076Z,98491.78
2023-02-26T07:43:14.066Z,98495.97
2023-02-26T07:45:40.803Z,98508.03
2023-02-26T07:48:07.853Z,98507.59
2023-02-26T07:50:34.606Z,98514.84
2023-02-26T07:53:01.435Z,98515.22
2023-02-26T07:55:28.478Z,98510.00
2023-02-26T07:57:55.319Z,98519.53
2023-02-26T08:00:22.210Z,98519.59
2023-02-26T08:02:48.991Z,98523.22
2023-02-26T08:05:15.934Z,98524.22
2023-02-26T08:07:42.679Z,98527.81
2023-02-26T08:10:10.494Z,98536.94
2023-02-26T08:12:39.676Z,98538.34
2023-02-26T08:15:06.919Z,98532.63
2023-02-26T08:20:00.622Z,98531.44
2023-02-26T08:24:53.672Z,98547.94
2023-02-26T08:27:20.255Z,98547.34
2023-02-26T08:29:46.956Z,98550.66
2023-02-26T08:32:15.868Z,98552.47
2023-02-26T08:37:11.718Z,98555.91
2023-02-26T08:39:39.064Z,98563.63
2023-02-26T08:42:10.088Z,98565.22
2023-02-26T08:44:36.879Z,98574.22
2023-02-26T08:47:03.906Z,98569.09
2023-02-26T08:51:57.290Z,98579.81
2023-02-26T08:56:57.605Z,98584.53
2023-02-26T08:59:25.445Z,98593.34
2023-02-26T09:04:18.792Z,98599.28
2023-02-26T09:06:45.508Z,98599.50
2023-02-26T09:09:12.066Z,98608.81
2023-02-26T09:11:38.706Z,98607.72
2023-02-26T09:14:09.911Z,98609.47
2023-02-26T09:16:37.181Z,98616.53
2023-02-26T09:19:05.195Z,98621.22
2023-02-26T09:21:31.949Z,98628.06
2023-02-26T09:23:58.898Z,98639.13
2023-02-26T09:26:26.222Z,98644.44
2023-02-26T09:31:19.784Z,98647.34
2023-02-26T09:33:46.332Z,98654.06
2023-02-26T09:36:12.889Z,98653.09
2023-02-26T09:38:39.397Z,98660.50
2023-02-26T09:41:09.098Z,98655.22
2023-02-26T09:43:50.747Z,98661.50
2023-02-26T09:49:04.670Z,98668.28
2023-02-26T09:51:34.438Z,98664.13
2023-02-26T09:54:16.140Z,98678.44
2023-02-26T09:56:45.584Z,98673.47
2023-02-26T09:59:15.541Z,98675.53
2023-02-26T10:05:13.926Z,98681.94
2023-02-26T10:08:02.484Z,98688.72
2023-02-26T10:10:51.368Z,98691.00
2023-02-26T10:13:56.207Z,98696.28
2023-02-26T10:16:29.156Z,98678.44
2023-02-26T10:19:01.120Z,98694.38
2023-02-26T10:21:44.719Z,98702.56
2023-02-26T10:24:22.410Z,98700.97
2023-02-26T10:26:58.830Z,98704.16
2023-02-26T10:35:00.646Z,98720.44
2023-02-26T10:37:43.931Z,98722.16
2023-02-26T10:40:19.407Z,98728.75
2023-02-26T10:43:35.516Z,98728.78
2023-02-26T10:46:05.025Z,98727.59
2023-02-26T10:48:43.854Z,98734.16
2023-02-26T10:51:26.031Z,98724.19
2023-02-26T10:53:58.320Z,98731.47
2023-02-26T10:56:30.327Z,98729.56
2023-02-26T10:58:57.210Z,98726.38
2023-02-26T11:01:29.604Z,98727.66
2023-02-26T11:04:18.223Z,98730.56
2023-02-26T11:07:00.013Z,98714.66
2023-02-26T11:09:33.803Z,98725.91
2023-02-26T11:12:28.033Z,98728.97
2023-02-26T11:14:54.705Z,98729.94
2023-02-26T11:17:29.509Z,98735.25
2023-02-26T11:20:02.160Z,98727.19
2023-02-26T11:22:33.795Z,98729.94
2023-02-26T11:25:00.683Z,98725.44
2023-02-26T11:27:34.467Z,98722.38
2023-02-26T11:30:15.469Z,98720.75
2023-02-26T11:32:45.409Z,98723.97
2023-02-26T11:35:14.879Z,98719.81
2023-02-26T11:37:48.639Z,98712.38
2023-02-26T11:42:55.000Z,98715.63
2023-02-26T11:45:25.625Z,98719.53
2023-02-26T11:48:02.845Z,98714.31
2023-02-26T11:50:30.507Z,98717.22
2023-02-26T11:53:05.460Z,98723.81
2023-02-26T11:55:36.819Z,98717.22
2023-02-26T11:58:18.400Z,98718.19
2023-02-26T12:00:48.587Z,98725.09
2023-02-26T12:03:28.934Z,98711.75
2023-02-26T12:05:58.531Z,98713.66
2023-02-26T12:08:30.092Z,98708.69
2023-02-26T12:11:18.412Z,98709.63
2023-02-26T12:17:29.247Z,98711.34
2023-02-26T12:20:15.038Z,98722.00
2023-02-26T12:23:16.158Z,98714.94
2023-02-26T12:26:01.080Z,98722.81
2023-02-26T12:28:43.459Z,98716.84
2023-02-26T12:31:44.249Z,98714.56
2023-02-26T12:35:03.314Z,98708.00
2023-02-26T12:37:40.328Z,98707.06
2023-02-26T12:40:23.103Z,98726.97
2023-02-26T12:42:58.407Z,98728.56
2023-02-26T12:45:30.288Z,98727.72
2023-02-26T12:48:01.630Z,98732.31
2023-02-26T12:50:30.902Z,98739.91
2023-02-26T12:53:35.176Z,98737.56
2023-02-26T12:56:19.909Z,98740.69
2023-02-26T13:02:19.038Z,98727.03
2023-02-26T13:05:00.832Z,98722.97
2023-02-26T13:07:36.142Z,98734.94
2023-02-26T13:10:44.720Z,98740.91
2023-02-26T13:14:00.558Z,98744.19
2023-02-26T13:17:11.821Z,98746.78
2023-02-26T13:19:50.570Z,98749.41
2023-02-26T13:22:29.240Z,98748.13
2023-02-26T13:25:39.475Z,98739.09
2023-02-26T13:28:42.102Z,98753.75
2023-02-26T13:31:16.108Z,98746.00
2023-02-26T13:33:44.042Z,98758.72
2023-02-26T13:36:11.446Z,98757.91
2023-02-26T13:38:57.803Z,98746.34
2023-02-26T13:41:43.375Z,98746.00
2023-02-26T13:44:38.216Z,98753.41
2023-02-26T13:47:29.185Z,98755.84
2023-02-26T13:50:28.299Z,98748.44
2023-02-26T13:53:31.527Z,98761.13
2023-02-26T13:56:16.281Z,98746.81
2023-02-26T13:58:48.308Z,98739.09
2023-02-26T14:01:47.987Z,98752.28
2023-02-26T14:04:14.436Z,98748.75
2023-02-26T14:06:45.947Z,98739.25
2023-02-26T14:09:21.644Z,98742.16
2023-02-26T14:12:17.874Z,98748.56
2023-02-26T14:15:02.587Z,98748.25
2023-02-26T14:17:35.216Z,98747.63
2023-02-26T14:20:19.979Z,98760.63
2023-02-26T14:26:05.447Z,98762.41
2023-02-26T14:29:15.450Z,98765.47
2023-02-26T14:32:43.359Z,98775.25
2023-02-26T14:35:31.626Z,98773.81
2023-02-26T14:38:21.263Z,98773.50
2023-02-26T14:41:27.208Z,98786.53
2023-02-26T14:44:51.818Z,98785.38
2023-02-26T14:47:18.693Z,98791.63
2023-02-26T14:49:48.088Z,98794.53
2023-02-26T14:52:42.035Z,98805.00
2023-02-26T14:55:30.344Z,98806.09
2023-02-26T14:58:06.210Z,98804.44
2023-02-26T15:01:12.355Z,98814.41
2023-02-26T15:04:10.521Z,98823.84
2023-02-26T15:06:58.826Z,98827.69
2023-02-26T15:09:46.800Z,98822.03
2023-02-26T15:15:21.166Z,98829.94
2023-02-26T15:17:57.356Z,98834.13
2023-02-26T15:20:38.163Z,98831.94
2023-02-26T15:23:23.339Z,98839.81
2023-02-26T15:25:50.960Z,98843.94
2023-02-26T15:28:29.507Z,98847.47
2023-02-26T15:31:01.779Z,98844.06
2023-02-26T15:33:29.634Z,98854.00
2023-02-26T15:35:58.429Z,98851.06
2023-02-26T15:41:02.516Z,98852.81
2023-02-26T15:43:29.925Z,98860.22
2023-02-26T15:45:58.578Z,98867.56
2023-02-26T15:48:32.587Z,98863.53
2023-02-26T15:51:02.977Z,98880.53
2023-02-26T15:53:55.401Z,98877.91
2023-02-26T15:58:58.178Z,98874.81
2023-02-26T16:01:28.202Z,98882.00
2023-02-26T16:04:00.513Z,98882.50
2023-02-26T16:06:40.312Z,98891.53
2023-02-26T16:09:15.186Z,98892.72
2023-02-26T16:11:44.540Z,98891.84
2023-02-26T16:14:19.098Z,98899.09
2023-02-26T16:16:52.697Z,98902.31
2023-02-26T16:19:27.604Z,98908.19
2023-02-26T16:21:56.049Z,98912.47
2023-02-26T16:26:56.166Z,98912.03
2023-02-26T16:29:26.913Z,98927.28
2023-02-26T16:31:59.421Z,98930.13
2023-02-26T16:36:56.880Z,98939.91
2023-02-26T16:39:27.747Z,98946.94
2023-02-26T16:42:40.828Z,98937.53
2023-02-26T16:45:32.330Z,98940.78
2023-02-26T16:48:26.472Z,98948.94
2023-02-26T16:51:16.819Z,98950.81
2023-02-26T16:53:58.091Z,98956.88
2023-02-26T16:56:28.554Z,98963.09
2023-02-26T17:01:57.588Z,98971.78
2023-02-26T17:04:50.242Z,98969.06
2023-02-26T17:07:29.895Z,98982.16
2023-02-26T17:10:05.156Z,98989.97
2023-02-26T17:12:46.532Z,98992.66
2023-02-26T17:18:05.077Z,98997.66
2023-02-26T17:20:38.949Z,99002.66
2023-02-26T17:23:11.043Z,99005.09
2023-02-26T17:25:52.862Z,99013.03
2023-02-26T17:28:26.271Z,99006.06
2023-02-26T17:30:57.289Z,99013.06
2023-02-26T17:35:52.268Z,99011.03
2023-02-26T17:38:18.929Z,99016.84
2023-02-26T17:40:47.671Z,99028.44
2023-02-26T17:43:14.322Z,99030.72
2023-02-26T17:45:41.637Z,99037.34
2023-02-26T17:48:09.247Z,99028.84
2023-02-26T17:50:48.563Z,99035.47
2023-02-26T17:53:16.545Z,99029.38
2023-02-26T17:55:44.344Z,99035.72
2023-02-26T17:58:22.537Z,99039.38
2023-02-26T18:00:52.929Z,99039.50
2023-02-26T18:03:20.698Z,99047.88
2023-02-26T18:05:52.718Z,99049.47
2023-02-26T18:08:23.432Z,99060.53
2023-02-26T18:10:50.704Z,99069.03
2023-02-26T18:13:17.322Z,99070.38
2023-02-26T18:15:44.388Z,99055.69
2023-02-26T18:18:16.343Z,99069.31
2023-02-26T18:20:44.112Z,99060.78
2023-02-26T18:23:16.636Z,99073.06
2023-02-26T18:25:48.896Z,99072.66
2023-02-26T18:28:26.907Z,99075.34
2023-02-26T18:30:54.372Z,99079.69
2023-02-26T18:33:21.983Z,99089.22
2023-02-26T18:35:53.235Z,99086.25
2023-02-26T18:38:26.277Z,99086.94
2023-02-26T18:40:53.808Z,99098.78
2023-02-26T18:43:20.888Z,99091.50
2023-02-26T18:46:03.326Z,99089.47
2023-02-26T18:48:30.098Z,99092.03
2023-02-26T18:50:56.823Z,99100.94
2023-02-26T18:53:23.765Z,99096.63
2023-02-26T18:55:54.640Z,99104.41
2023-02-26T18:58:21.709Z,99100.09
2023-02-26T19:00:48.316Z,99101.56
2023-02-26T19:03:14.961Z,99112.50
2023-02-26T19:05:41.489Z,99118.97
2023-02-26T19:08:08.860Z,99114.50
2023-02-26T19:10:36.122Z,99114.50
2023-02-26T19:13:06.391Z,99114.50
2023-02-26T19:15:32.942Z,99107.59
2023-02-26T19:18:07.720Z,99110.59
2023-02-26T19:20:34.666Z,99115.97
2023-02-26T19:23:01.299Z,99111.91
2023-02-26T19:25:29.246Z,99119.72
2023-02-26T19:27:56.024Z,99114.97
2023-02-26T19:30:23.714Z,99105.94
2023-02-26T19:32:51.369Z,99122.25
2023-02-26T19:35:19.567Z,99120.63
2023-02-26T19:37:46.591Z,99122.78
2023-02-26T19:40:16.653Z,99129.78
2023-02-26T19:42:44.148Z,99123.31
2023-02-26T19:45:12.086Z,99123.97
2023-02-26T19:47:38.888Z,99128.19
2023-02-26T19:50:06.983Z,99128.56
2023-02-26T19:52:36.699Z,99136.59
2023-02-26T19:55:07.451Z,99141.97
2023-02-26T19:57:34.277Z,99147.66
2023-02-26T20:00:00.935Z,99145.34
2023-02-26T20:04:54.256Z,99152.63
2023-02-26T20:07:21.170Z,99154.34
2023-02-26T20:09:49.457Z,99157.59
2023-02-26T20:12:16.558Z,99159.44
2023-02-26T20:14:43.739Z,99157.16
2023-02-26T20:17:10.579Z,99159.72
2023-02-26T20:19:37.186Z,99165.53
2023-02-26T20:22:03.903Z,99165.53
2023-02-26T20:24:32.920Z,99171.59
2023-02-26T20:27:00.218Z,99164.81
2023-02-26T20:29:26.919Z,99170.75
2023-02-26T20:31:53.962Z,99179.13
2023-02-26T20:34:20.977Z,99178.69
2023-02-26T20:36:49.890Z,99182.44
2023-02-26T20:39:19.105Z,99179.75
2023-02-26T20:41:48.675Z,99181.75
2023-02-26T20:44:15.477Z,99187.66
2023-02-26T20:46:42.391Z,99190.22
2023-02-26T20:49:12.083Z,99191.28
2023-02-26T20:51:42.697Z,99194.09
2023-02-26T20:54:12.772Z,99196.66
2023-02-26T20:56:39.423Z,99193.97
2023-02-26T20:59:06.124Z,99195.84
2023-02-26T21:01:35.767Z,99200.72
2023-02-26T21:04:05.324Z,99204.56
2023-02-26T21:06:33.758Z,99212.25
2023-02-26T21:09:01.807Z,99196.09
2023-02-26T21:11:34.575Z,99209.00
2023-02-26T21:14:06.732Z,99208.44
2023-02-26T21:19:02.538Z,99208.56
2023-02-26T21:24:01.357Z,99199.63
2023-02-26T21:26:28.213Z,99201.13
2023-02-26T21:28:57.775Z,99199.63
2023-02-26T21:36:21.953Z,99207.34
2023-02-26T21:45:01.630Z,99203.75
2023-02-26T21:47:48.525Z,99205.75
2023-02-26T21:50:17.618Z,99203.75
2023-02-26T21:52:44.435Z,99213.16
2023-02-26T21:55:11.514Z,99210.31
2023-02-26T21:57:38.180Z,99209.25
2023-02-26T22:00:10.327Z,99202.84
2023-02-26T22:02:37.563Z,99213.06
2023-02-26T22:05:13.534Z,99215.53
2023-02-26T22:07:52.280Z,99219.69
2023-02-26T22:10:39.544Z,99209.97
2023-02-26T22:13:11.227Z,99216.00
2023-02-26T22:15:39.741Z,99214.25
2023-02-26T22:18:06.791Z,99218.94
2023-02-26T22:20:51.660Z,99224.38
2023-02-26T22:23:21.445Z,99224.38
2023-02-26T22:25:48.732Z,99218.44
2023-02-26T22:28:15.468Z,99226.34
2023-02-26T22:30:43.551Z,99223.09
2023-02-26T22:33:10.636Z,99232.41
2023-02-26T22:36:07.341Z,99218.94
2023-02-26T22:38:34.208Z,99218.72
2023-02-26T22:41:00.982Z,99213.50
2023-02-26T22:43:27.709Z,99213.34
2023-02-26T22:46:00.203Z,99208.84
2023-02-26T22:48:27.450Z,99223.13
2023-02-26T22:50:56.239Z,99223.13
2023-02-26T22:53:22.813Z,99228.63
2023-02-26T22:55:49.443Z,99225.38
2023-02-26T22:58:16.148Z,99222.25
2023-02-26T23:00:42.874Z,99222.91
2023-02-26T23:03:09.541Z,99227.91
2023-02-26T23:05:36.279Z,99219.31
2023-02-26T23:08:02.908Z,99223.75
2023-02-26T23:10:29.667Z,99223.75
2023-02-26T23:13:00.206Z,99222.81
2023-02-26T23:15:26.982Z,99225.47
2023-02-26T23:17:53.644Z,99218.66
2023-02-26T23:20:22.899Z,99221.31
2023-02-26T23:22:49.747Z,99217.81
2023-02-26T23:25:16.536Z,99224.22
2023-02-26T23:27:43.884Z,99226.66
2023-02-26T23:30:11.155Z,99225.97
2023-02-26T23:32:37.977Z,99222.03
2023-02-26T23:35:05.850Z,99225.50
2023-02-26T23:37:32.610Z,99234.66
2023-02-26T23:39:59.370Z,99233.16
2023-02-26T23:42:26.206Z,99237.94
2023-02-26T23:44:52.910Z,99240.50
2023-02-26T23:47:19.735Z,99239.47
2023-02-26T23:49:46.340Z,99245.00
2023-02-26T23:52:13.054Z,99251.78
2023-02-26T23:54:40.107Z,99250.50
2023-02-26T23:57:09.293Z,99261.53
2023-02-26T23:59:35.921Z,99254.22
